Time;durP1;ratioP1;P1;durP2;ratioP2;P2;SDS_P1;SDS_P2;PMS_P1;PMS_P2;Temp;Humidity;BMP_temperature;BMP_pressure;BME280_temperature;BME280_humidity;BME280_pressure;Samples;Min_cycle;Max_cycle;Signal;HPM_P1;HPM_P2
2024/02/04 00:01:27;;;;;;;20.77;9.57;;;10.60;99.90;;;;;;5047921;28;20225;-62
2024/02/04 00:03:59;;;;;;;21.90;10.30;;;10.60;99.90;;;;;;5042360;28;20223;-62
2024/02/04 00:06:27;;;;;;;18.83;10.07;;;10.60;99.90;;;;;;5045359;28;20244;-63
2024/02/04 00:08:56;;;;;;;25.03;9.93;;;10.60;99.90;;;;;;5045514;28;20225;-63
2024/02/04 00:11:24;;;;;;;20.30;9.70;;;10.60;99.90;;;;;;5042559;28;20212;-62
2024/02/04 00:13:54;;;;;;;18.83;9.17;;;10.60;99.90;;;;;;5048006;28;20188;-62
2024/02/04 00:16:23;;;;;;;21.90;10.00;;;10.60;99.90;;;;;;5045519;28;20231;-63
2024/02/04 00:18:51;;;;;;;15.47;9.30;;;10.60;99.90;;;;;;5043735;28;20571;-62
2024/02/04 00:21:20;;;;;;;20.83;9.60;;;10.60;99.90;;;;;;5043004;28;20225;-62
2024/02/04 00:23:48;;;;;;;17.03;8.87;;;10.60;99.90;;;;;;5039597;28;20282;-62
2024/02/04 00:26:17;;;;;;;17.03;9.70;;;10.50;99.90;;;;;;5042602;28;20652;-62
2024/02/04 00:28:45;;;;;;;20.37;10.07;;;10.50;99.90;;;;;;5023966;28;20193;-63
2024/02/04 00:31:15;;;;;;;20.13;10.10;;;10.50;99.90;;;;;;5028664;28;20237;-62
2024/02/04 00:33:43;;;;;;;14.67;9.53;;;10.50;99.90;;;;;;5036636;28;20595;-62
2024/02/04 00:36:11;;;;;;;24.37;9.40;;;10.50;99.90;;;;;;5044838;28;20248;-62
2024/02/04 00:38:40;;;;;;;21.67;10.07;;;10.50;99.90;;;;;;5045241;28;20220;-62
2024/02/04 00:41:08;;;;;;;17.73;9.47;;;10.50;99.90;;;;;;5046555;28;20281;-62
2024/02/04 00:43:36;;;;;;;18.93;9.60;;;10.50;99.90;;;;;;5040985;28;20236;-62
2024/02/04 00:46:04;;;;;;;16.53;10.17;;;10.50;99.90;;;;;;5042907;28;20237;-62
2024/02/04 00:48:34;;;;;;;17.17;9.73;;;10.50;99.90;;;;;;5048608;28;20216;-62
2024/02/04 00:51:01;;;;;;;22.43;10.30;;;10.50;99.90;;;;;;5043758;28;20228;-62
2024/02/04 00:53:33;;;;;;;18.80;10.03;;;10.50;99.90;;;;;;5040050;28;20229;-62
2024/02/04 00:56:03;;;;;;;18.50;9.63;;;10.50;99.90;;;;;;5046132;28;20200;-63
2024/02/04 00:58:31;;;;;;;20.30;9.90;;;10.50;99.90;;;;;;5048705;28;20227;-62
2024/02/04 01:00:59;;;;;;;19.77;10.57;;;10.50;99.90;;;;;;5044729;28;20369;-62
2024/02/04 01:03:28;;;;;;;23.20;10.47;;;10.50;99.90;;;;;;5047111;28;20217;-62
2024/02/04 01:05:58;;;;;;;18.67;11.03;;;10.50;99.90;;;;;;5050291;28;20287;-62
2024/02/04 01:08:26;;;;;;;18.07;10.53;;;10.50;99.90;;;;;;5048084;28;20254;-62
2024/02/04 01:10:54;;;;;;;20.30;10.67;;;10.50;99.90;;;;;;5048490;28;20204;-62
2024/02/04 01:13:22;;;;;;;23.07;10.70;;;10.50;99.90;;;;;;5046147;28;20263;-62
2024/02/04 01:15:50;;;;;;;17.33;10.90;;;10.50;99.90;;;;;;5045972;28;20228;-62
2024/02/04 01:18:19;;;;;;;22.40;11.30;;;10.50;99.90;;;;;;5047982;28;20220;-62
2024/02/04 01:20:47;;;;;;;18.60;9.80;;;10.50;99.90;;;;;;5044477;28;20630;-62
2024/02/04 01:23:18;;;;;;;19.50;10.47;;;10.50;99.90;;;;;;5044993;28;20204;-62
2024/02/04 01:25:47;;;;;;;20.70;10.20;;;10.50;99.90;;;;;;5047632;28;20224;-62
2024/02/04 01:28:15;;;;;;;21.27;9.97;;;10.50;99.90;;;;;;5051225;28;20235;-62
2024/02/04 01:30:43;;;;;;;21.77;9.47;;;10.50;99.90;;;;;;5047102;28;20246;-62
2024/02/04 01:33:12;;;;;;;25.87;10.80;;;10.50;99.90;;;;;;5047410;28;20274;-62
2024/02/04 01:35:40;;;;;;;15.50;8.97;;;10.50;99.90;;;;;;5043355;28;20640;-62
2024/02/04 01:38:08;;;;;;;23.00;9.80;;;10.50;99.90;;;;;;5046827;28;20555;-62
2024/02/04 01:40:38;;;;;;;18.07;10.00;;;10.50;99.90;;;;;;5046884;28;20232;-62
2024/02/04 01:43:06;;;;;;;20.20;9.10;;;10.50;99.90;;;;;;5042905;28;20311;-61
2024/02/04 01:45:35;;;;;;;17.33;9.83;;;10.50;99.90;;;;;;5045139;28;20216;-62
2024/02/04 01:48:03;;;;;;;17.10;9.50;;;10.50;99.90;;;;;;5046655;28;20307;-61
2024/02/04 01:50:32;;;;;;;16.27;9.43;;;10.50;99.90;;;;;;5043552;28;20225;-62
2024/02/04 01:53:00;;;;;;;19.97;9.90;;;10.50;99.90;;;;;;5048407;28;20217;-62
2024/02/04 01:55:28;;;;;;;17.20;8.53;;;10.50;99.90;;;;;;5048102;28;20309;-61
2024/02/04 01:57:58;;;;;;;20.90;9.03;;;10.50;99.90;;;;;;5045317;28;20219;-61
2024/02/04 02:00:26;;;;;;;19.87;9.93;;;10.50;99.90;;;;;;5047220;28;20216;-62
2024/02/04 02:02:56;;;;;;;16.57;9.10;;;10.50;99.90;;;;;;5043302;28;20224;-62
2024/02/04 02:05:24;;;;;;;20.07;9.47;;;10.50;99.90;;;;;;5048363;28;20193;-62
2024/02/04 02:07:53;;;;;;;19.77;10.07;;;10.50;99.90;;;;;;5050225;28;20197;-62
2024/02/04 02:10:23;;;;;;;20.17;9.17;;;10.50;99.90;;;;;;5043945;28;20217;-61
2024/02/04 02:12:57;;;;;;;23.57;9.60;;;10.50;99.90;;;;;;5043447;28;20705;-61
2024/02/04 02:15:31;;;;;;;21.53;9.57;;;10.50;99.90;;;;;;5046016;28;20731;-62
2024/02/04 02:18:03;;;;;;;22.33;9.60;;;10.50;99.90;;;;;;5044731;28;20216;-61
2024/02/04 02:20:45;;;;;;;22.07;9.93;;;10.50;99.90;;;;;;5042813;28;20221;-61
2024/02/04 02:23:22;;;;;;;24.87;10.20;;;10.50;99.90;;;;;;5048546;28;20195;-61
2024/02/04 02:25:53;;;;;;;18.83;10.60;;;10.50;99.90;;;;;;5048203;28;20189;-62
2024/02/04 02:28:22;;;;;;;33.27;10.03;;;10.50;99.90;;;;;;5045733;28;20221;-62
2024/02/04 02:30:50;;;;;;;24.90;10.13;;;10.50;99.90;;;;;;5045701;28;20537;-61
2024/02/04 02:33:19;;;;;;;29.93;10.93;;;10.50;99.90;;;;;;5046417;28;20232;-62
2024/02/04 02:35:54;;;;;;;25.77;9.57;;;10.50;99.90;;;;;;5049269;28;20224;-62
2024/02/04 02:38:28;;;;;;;27.77;11.17;;;10.50;99.90;;;;;;5047846;28;21013;-62
2024/02/04 02:41:00;;;;;;;26.87;10.63;;;10.50;99.90;;;;;;5046184;28;20642;-62
2024/02/04 02:43:30;;;;;;;23.70;11.17;;;10.50;99.90;;;;;;5047217;28;20236;-61
2024/02/04 02:45:58;;;;;;;22.47;10.70;;;10.50;99.90;;;;;;5042639;28;20212;-62
2024/02/04 02:48:27;;;;;;;24.77;10.33;;;10.50;99.90;;;;;;5040655;28;20216;-62
2024/02/04 02:50:55;;;;;;;30.40;10.90;;;10.50;99.90;;;;;;5044051;28;20247;-62
2024/02/04 02:53:23;;;;;;;27.13;9.20;;;10.50;99.90;;;;;;5043516;28;20213;-62
2024/02/04 02:55:51;;;;;;;30.90;10.00;;;10.50;99.90;;;;;;5045143;28;20279;-61
2024/02/04 02:58:21;;;;;;;21.77;8.70;;;10.50;99.90;;;;;;5042867;28;20625;-61
2024/02/04 03:00:49;;;;;;;23.37;9.30;;;10.50;99.90;;;;;;5040068;28;20231;-62
2024/02/04 03:03:18;;;;;;;19.30;8.57;;;10.50;99.90;;;;;;5046325;28;20212;-61
2024/02/04 03:05:46;;;;;;;16.73;8.33;;;10.50;99.90;;;;;;5046349;28;20252;-61
2024/02/04 03:08:14;;;;;;;22.40;8.30;;;10.50;99.90;;;;;;5045517;28;20224;-62
2024/02/04 03:10:43;;;;;;;16.83;8.67;;;10.50;99.90;;;;;;5042420;28;20197;-62
2024/02/04 03:13:11;;;;;;;21.63;9.40;;;10.50;99.90;;;;;;5041261;28;20231;-62
2024/02/04 03:15:43;;;;;;;17.87;8.60;;;10.50;99.90;;;;;;5042819;28;20236;-62
2024/02/04 03:18:12;;;;;;;18.53;8.53;;;10.50;99.90;;;;;;5042502;28;20266;-61
2024/02/04 03:20:40;;;;;;;21.47;9.17;;;10.50;99.90;;;;;;5045989;28;20555;-61
2024/02/04 03:23:08;;;;;;;22.10;9.57;;;10.50;99.90;;;;;;5043737;28;20198;-61
2024/02/04 03:25:39;;;;;;;22.70;10.00;;;10.50;99.90;;;;;;5044928;28;20221;-62
2024/02/04 03:28:07;;;;;;;22.10;9.53;;;10.50;99.90;;;;;;5043131;28;20228;-62
2024/02/04 03:30:37;;;;;;;18.27;9.10;;;10.40;99.90;;;;;;5040454;28;20307;-62
2024/02/04 03:33:06;;;;;;;20.67;9.97;;;10.40;99.90;;;;;;5042060;28;20283;-62
2024/02/04 03:35:37;;;;;;;22.93;9.70;;;10.40;99.90;;;;;;5044800;28;20231;-62
2024/02/04 03:38:05;;;;;;;22.73;10.07;;;10.40;99.90;;;;;;5043899;28;20580;-62
2024/02/04 03:40:33;;;;;;;25.53;10.67;;;10.40;99.90;;;;;;5044929;28;20221;-61
2024/02/04 03:43:01;;;;;;;21.00;10.57;;;10.40;99.90;;;;;;5047519;28;20319;-61
2024/02/04 03:45:30;;;;;;;20.90;11.00;;;10.40;99.90;;;;;;5041532;28;20224;-61
2024/02/04 03:47:59;;;;;;;24.77;10.80;;;10.40;99.90;;;;;;5043465;28;20221;-61
2024/02/04 03:50:28;;;;;;;24.37;11.20;;;10.40;99.90;;;;;;5041815;28;20211;-61
2024/02/04 03:52:57;;;;;;;24.97;10.93;;;10.40;99.90;;;;;;5039043;28;20211;-61
2024/02/04 03:55:25;;;;;;;29.30;12.90;;;10.40;99.90;;;;;;5046299;28;20217;-61
2024/02/04 03:57:53;;;;;;;24.93;11.73;;;10.40;99.90;;;;;;5042792;28;20315;-61
2024/02/04 04:00:21;;;;;;;25.40;12.83;;;10.30;99.90;;;;;;5043939;28;20754;-61
2024/02/04 04:02:51;;;;;;;23.67;12.77;;;10.40;99.90;;;;;;5045747;28;20220;-61
2024/02/04 04:05:19;;;;;;;29.93;12.93;;;10.40;99.90;;;;;;5039740;28;20216;-61
2024/02/04 04:07:49;;;;;;;24.57;12.23;;;10.40;99.90;;;;;;5045982;28;20201;-62
2024/02/04 04:10:18;;;;;;;31.07;12.47;;;10.40;99.90;;;;;;5041207;28;20227;-62
2024/02/04 04:12:46;;;;;;;31.77;13.00;;;10.40;99.90;;;;;;5044333;28;20315;-61
2024/02/04 04:15:14;;;;;;;25.63;12.40;;;10.40;99.90;;;;;;5044354;28;20220;-61
2024/02/04 04:17:43;;;;;;;30.07;12.60;;;10.40;99.90;;;;;;5044893;28;20224;-62
2024/02/04 04:20:12;;;;;;;24.77;12.67;;;10.40;99.90;;;;;;5041925;28;20296;-62
2024/02/04 04:22:41;;;;;;;34.20;12.47;;;10.40;99.90;;;;;;5046504;28;20188;-61
2024/02/04 04:25:11;;;;;;;36.83;12.97;;;10.40;99.90;;;;;;5044483;28;20232;-62
2024/02/04 04:27:39;;;;;;;24.50;11.83;;;10.40;99.90;;;;;;5050480;28;20296;-62
2024/02/04 04:30:08;;;;;;;26.90;12.27;;;10.40;99.90;;;;;;5051779;28;20225;-61
2024/02/04 04:32:37;;;;;;;28.03;11.93;;;10.40;99.90;;;;;;5044969;28;20233;-61
2024/02/04 04:35:06;;;;;;;28.40;11.33;;;10.30;99.90;;;;;;5044602;28;20250;-62
2024/02/04 04:37:34;;;;;;;25.93;11.40;;;10.30;99.90;;;;;;5045390;28;20545;-62
2024/02/04 04:40:02;;;;;;;30.97;11.30;;;10.30;99.90;;;;;;5045521;28;20231;-61
2024/02/04 04:42:32;;;;;;;26.10;10.57;;;10.30;99.90;;;;;;5047598;28;20639;-61
2024/02/04 04:45:01;;;;;;;24.97;10.60;;;10.30;99.90;;;;;;5047479;28;20221;-62
2024/02/04 04:47:29;;;;;;;27.67;11.00;;;10.30;99.90;;;;;;5046530;28;20228;-62
2024/02/04 04:49:58;;;;;;;27.07;10.70;;;10.30;99.90;;;;;;5051131;28;20292;-61
2024/02/04 04:52:26;;;;;;;24.53;10.87;;;10.30;99.90;;;;;;5055434;28;20220;-62
2024/02/04 04:54:54;;;;;;;23.97;10.27;;;10.30;99.90;;;;;;5050237;28;20304;-61
2024/02/04 04:57:22;;;;;;;20.17;10.37;;;10.30;99.90;;;;;;5056766;28;20225;-62
2024/02/04 04:59:52;;;;;;;22.07;9.40;;;10.40;99.90;;;;;;5046512;28;20224;-61
2024/02/04 05:02:21;;;;;;;26.83;10.33;;;10.40;99.90;;;;;;5045306;28;20664;-62
2024/02/04 05:04:50;;;;;;;23.27;10.10;;;10.40;99.90;;;;;;5049061;28;20646;-61
2024/02/04 05:07:18;;;;;;;18.23;9.37;;;10.30;99.90;;;;;;5051191;28;20212;-61
2024/02/04 05:09:47;;;;;;;26.27;11.13;;;10.40;99.90;;;;;;5042768;28;20695;-62
2024/02/04 05:12:15;;;;;;;22.70;10.27;;;10.40;99.90;;;;;;5046413;28;20683;-62
2024/02/04 05:14:43;;;;;;;23.47;10.20;;;10.40;99.90;;;;;;5041615;28;20720;-61
2024/02/04 05:17:13;;;;;;;29.20;10.57;;;10.40;99.90;;;;;;5049716;28;20196;-62
2024/02/04 05:19:42;;;;;;;30.10;10.97;;;10.40;99.90;;;;;;5044315;28;20193;-61
2024/02/04 05:22:11;;;;;;;28.30;10.50;;;10.40;99.90;;;;;;5042167;28;20568;-62
2024/02/04 05:24:39;;;;;;;28.27;10.43;;;10.40;99.90;;;;;;5047700;28;20313;-62
2024/02/04 05:27:07;;;;;;;25.23;10.47;;;10.40;99.90;;;;;;5050026;28;20298;-62
2024/02/04 05:29:35;;;;;;;24.87;9.60;;;10.40;99.90;;;;;;5049564;28;20227;-62
2024/02/04 05:32:04;;;;;;;32.90;10.70;;;10.40;99.90;;;;;;5049253;28;20193;-62
2024/02/04 05:34:34;;;;;;;22.70;10.57;;;10.40;99.90;;;;;;5045712;28;20225;-61
2024/02/04 05:37:03;;;;;;;23.87;10.73;;;10.50;99.90;;;;;;5043661;28;20220;-62
2024/02/04 05:39:31;;;;;;;25.00;11.47;;;10.50;99.90;;;;;;5043833;28;20306;-61
2024/02/04 05:41:59;;;;;;;23.47;11.63;;;10.50;99.90;;;;;;5044343;28;20229;-61
2024/02/04 05:44:28;;;;;;;30.73;13.00;;;10.50;99.90;;;;;;5046670;28;20192;-62
2024/02/04 05:46:56;;;;;;;28.17;12.70;;;10.50;99.90;;;;;;5046674;28;20197;-61
2024/02/04 05:49:24;;;;;;;30.87;12.37;;;10.50;99.90;;;;;;5043396;28;20307;-61
2024/02/04 05:51:54;;;;;;;34.03;14.20;;;10.50;99.90;;;;;;5049037;28;20216;-61
2024/02/04 05:54:23;;;;;;;36.83;14.57;;;10.50;99.90;;;;;;5049884;28;20294;-61
2024/02/04 05:56:51;;;;;;;27.80;13.63;;;10.50;99.90;;;;;;5048667;28;20649;-61
2024/02/04 05:59:19;;;;;;;33.47;14.30;;;10.50;99.90;;;;;;5045069;28;20201;-61
2024/02/04 06:01:47;;;;;;;35.20;15.53;;;10.50;99.90;;;;;;5047659;28;20283;-61
2024/02/04 06:04:15;;;;;;;29.73;14.40;;;10.50;99.90;;;;;;5046593;28;20248;-61
2024/02/04 06:06:44;;;;;;;29.90;14.97;;;10.40;99.90;;;;;;5049149;28;20208;-61
2024/02/04 06:09:14;;;;;;;31.90;14.33;;;10.40;99.90;;;;;;5048272;28;20219;-62
2024/02/04 06:11:45;;;;;;;23.50;12.97;;;10.40;99.90;;;;;;5051079;28;20236;-61
2024/02/04 06:14:14;;;;;;;26.50;13.20;;;10.50;99.90;;;;;;5060726;28;20204;-61
2024/02/04 06:16:42;;;;;;;26.23;13.07;;;10.50;99.90;;;;;;5044234;28;20205;-61
2024/02/04 06:19:12;;;;;;;28.27;13.53;;;10.40;99.90;;;;;;5051066;28;20220;-61
2024/02/04 06:21:41;;;;;;;29.10;12.07;;;10.40;99.90;;;;;;5045254;28;20226;-62
2024/02/04 06:24:09;;;;;;;25.63;12.67;;;10.50;99.90;;;;;;5042521;28;20228;-62
2024/02/04 06:26:40;;;;;;;22.90;11.30;;;10.50;99.90;;;;;;5048181;28;20591;-61
2024/02/04 06:29:09;;;;;;;21.20;11.10;;;10.40;99.90;;;;;;5047223;28;20235;-61
2024/02/04 06:31:37;;;;;;;21.30;9.97;;;10.40;99.90;;;;;;5047362;28;20583;-61
2024/02/04 06:34:05;;;;;;;21.40;9.23;;;10.40;99.90;;;;;;5044164;28;20699;-62
2024/02/04 06:36:33;;;;;;;18.23;8.90;;;10.40;99.90;;;;;;5044450;28;20312;-61
2024/02/04 06:39:02;;;;;;;19.20;8.73;;;10.40;99.90;;;;;;5043642;28;20679;-61
2024/02/04 06:41:30;;;;;;;23.20;9.23;;;10.40;99.90;;;;;;5048984;28;20706;-61
2024/02/04 06:43:59;;;;;;;16.53;8.93;;;10.40;99.90;;;;;;5050925;28;20199;-61
2024/02/04 06:46:27;;;;;;;18.37;9.13;;;10.40;99.90;;;;;;5043402;28;20220;-61
2024/02/04 06:48:55;;;;;;;18.30;9.70;;;10.40;99.90;;;;;;5040198;28;20231;-61
2024/02/04 06:51:24;;;;;;;16.77;9.10;;;10.40;99.90;;;;;;5040159;28;20225;-61
2024/02/04 06:53:52;;;;;;;20.90;9.43;;;10.40;99.90;;;;;;5047088;28;20221;-61
2024/02/04 06:56:21;;;;;;;18.00;9.37;;;10.40;99.90;;;;;;5047212;28;20497;-61
2024/02/04 06:58:49;;;;;;;19.30;8.83;;;10.40;99.90;;;;;;5047154;28;20185;-62
2024/02/04 07:01:18;;;;;;;19.53;8.67;;;10.40;99.90;;;;;;5043418;28;20213;-62
2024/02/04 07:03:47;;;;;;;17.07;8.47;;;10.40;99.90;;;;;;5042814;28;20224;-62
2024/02/04 07:06:15;;;;;;;17.17;8.03;;;10.40;99.90;;;;;;5045512;28;20217;-62
2024/02/04 07:08:43;;;;;;;14.63;8.57;;;10.40;99.90;;;;;;5046751;28;20683;-61
2024/02/04 07:11:12;;;;;;;19.60;8.30;;;10.50;99.90;;;;;;5044050;28;20196;-61
2024/02/04 07:13:40;;;;;;;25.30;9.10;;;10.40;99.90;;;;;;5042689;28;20197;-62
2024/02/04 07:16:08;;;;;;;19.90;8.77;;;10.50;99.90;;;;;;5043522;28;20263;-62
2024/02/04 07:18:38;;;;;;;19.47;8.70;;;10.50;99.90;;;;;;5040951;28;20304;-61
2024/02/04 07:21:07;;;;;;;17.40;8.17;;;10.50;99.90;;;;;;5042955;28;20321;-62
2024/02/04 07:23:36;;;;;;;18.27;8.70;;;10.50;99.90;;;;;;5043199;28;20235;-62
2024/02/04 07:26:05;;;;;;;17.30;7.90;;;10.50;99.90;;;;;;5046126;28;20204;-62
2024/02/04 07:28:33;;;;;;;19.43;8.80;;;10.50;99.90;;;;;;5044050;28;20220;-62
2024/02/04 07:31:01;;;;;;;20.63;8.30;;;10.50;99.90;;;;;;5060806;28;20221;-61
2024/02/04 07:33:30;;;;;;;17.80;8.07;;;10.60;99.90;;;;;;5047001;28;20224;-61
2024/02/04 07:36:01;;;;;;;15.27;7.93;;;10.60;99.90;;;;;;5041271;28;20228;-61
2024/02/04 07:38:30;;;;;;;18.83;8.57;;;10.60;99.90;;;;;;5042054;28;20573;-62
2024/02/04 07:40:59;;;;;;;19.73;9.27;;;10.60;99.90;;;;;;5046947;28;20563;-61
2024/02/04 07:43:27;;;;;;;20.03;10.43;;;10.60;99.90;;;;;;5043889;28;20232;-61
2024/02/04 07:45:59;;;;;;;20.17;10.93;;;10.60;99.90;;;;;;5042812;28;20221;-61
2024/02/04 07:48:32;;;;;;;19.63;11.27;;;10.60;99.90;;;;;;5043971;28;20271;-62
2024/02/04 07:51:02;;;;;;;20.93;11.30;;;10.60;99.90;;;;;;5047095;28;20228;-61
2024/02/04 07:53:30;;;;;;;17.13;10.80;;;10.60;99.90;;;;;;5042618;28;20698;-61
2024/02/04 07:55:59;;;;;;;19.73;11.40;;;10.60;99.90;;;;;;5043354;28;20549;-61
2024/02/04 07:58:28;;;;;;;25.10;10.90;;;10.60;99.90;;;;;;5043347;28;20223;-61
2024/02/04 08:00:56;;;;;;;19.40;9.37;;;10.60;99.90;;;;;;5050631;28;20229;-61
2024/02/04 08:03:24;;;;;;;16.27;9.00;;;10.60;99.90;;;;;;5047179;28;20259;-61
2024/02/04 08:05:53;;;;;;;18.10;8.63;;;10.70;99.90;;;;;;5044369;28;20216;-61
2024/02/04 08:08:22;;;;;;;13.57;7.80;;;10.60;99.90;;;;;;5050205;28;20231;-61
2024/02/04 08:10:51;;;;;;;15.93;8.43;;;10.60;99.90;;;;;;5046294;28;20559;-61
2024/02/04 08:13:19;;;;;;;16.47;8.47;;;10.70;99.90;;;;;;5043954;28;20236;-61
2024/02/04 08:15:47;;;;;;;20.67;9.00;;;10.70;99.90;;;;;;5044495;28;20220;-61
2024/02/04 08:18:16;;;;;;;17.40;8.77;;;10.70;99.90;;;;;;5048324;28;20316;-61
2024/02/04 08:20:44;;;;;;;18.17;8.80;;;10.80;99.90;;;;;;5050844;28;20271;-61
2024/02/04 08:23:13;;;;;;;21.53;8.73;;;10.80;99.90;;;;;;5050372;28;20539;-61
2024/02/04 08:25:43;;;;;;;20.10;9.97;;;10.80;99.90;;;;;;5047212;28;20425;-61
2024/02/04 08:28:12;;;;;;;17.43;9.83;;;10.90;99.90;;;;;;5064636;28;20224;-61
2024/02/04 08:30:40;;;;;;;16.37;9.33;;;10.80;99.90;;;;;;5047409;28;22044;-60
2024/02/04 08:33:08;;;;;;;17.67;9.53;;;10.90;99.90;;;;;;5048417;28;20232;-61
2024/02/04 08:35:37;;;;;;;18.00;9.70;;;11.00;99.90;;;;;;5045995;28;20229;-61
2024/02/04 08:38:05;;;;;;;17.17;9.17;;;11.00;99.90;;;;;;5049476;28;20215;-61
2024/02/04 08:40:33;;;;;;;18.70;8.63;;;11.00;99.90;;;;;;5050100;28;20227;-61
2024/02/04 08:43:03;;;;;;;16.07;8.03;;;11.00;99.90;;;;;;5046344;28;20308;-61
2024/02/04 08:45:32;;;;;;;14.77;8.17;;;11.00;99.90;;;;;;5047117;28;20220;-61
2024/02/04 08:48:00;;;;;;;12.87;7.47;;;11.00;99.90;;;;;;5041796;28;20307;-61
2024/02/04 08:50:30;;;;;;;17.77;7.17;;;11.00;99.90;;;;;;5063778;28;20185;-61
2024/02/04 08:52:59;;;;;;;17.03;7.17;;;11.00;99.90;;;;;;5050316;28;20193;-60
2024/02/04 08:55:27;;;;;;;8.67;5.70;;;11.00;99.90;;;;;;5046659;28;20575;-61
2024/02/04 08:57:56;;;;;;;15.37;6.30;;;11.00;99.90;;;;;;5044677;28;20786;-61
2024/02/04 09:00:25;;;;;;;14.07;5.60;;;11.00;99.90;;;;;;5049971;28;20231;-60
2024/02/04 09:02:54;;;;;;;9.90;5.90;;;11.10;99.90;;;;;;5051101;28;20236;-61
2024/02/04 09:05:22;;;;;;;8.13;5.13;;;11.10;99.90;;;;;;5045793;28;20212;-61
2024/02/04 09:07:51;;;;;;;12.47;5.37;;;11.00;99.90;;;;;;5044621;28;20289;-62
2024/02/04 09:10:19;;;;;;;11.10;5.20;;;11.00;99.90;;;;;;5043738;28;20773;-61
2024/02/04 09:12:47;;;;;;;14.37;5.43;;;11.10;99.90;;;;;;5047906;28;20216;-62
2024/02/04 09:15:16;;;;;;;10.27;5.27;;;11.10;99.90;;;;;;5047087;28;20228;-62
2024/02/04 09:17:46;;;;;;;11.83;4.83;;;11.10;99.90;;;;;;5050463;28;20575;-62
2024/02/04 09:20:15;;;;;;;14.70;5.20;;;11.00;99.90;;;;;;5048650;28;20243;-61
2024/02/04 09:22:43;;;;;;;14.97;5.63;;;11.00;99.90;;;;;;5050213;28;20208;-62
2024/02/04 09:25:12;;;;;;;6.63;5.13;;;11.10;99.90;;;;;;5047384;28;20213;-63
2024/02/04 09:27:40;;;;;;;13.87;5.07;;;11.10;99.90;;;;;;5043793;28;20221;-61
2024/02/04 09:30:10;;;;;;;11.50;5.23;;;11.10;99.90;;;;;;5046101;28;20228;-62
2024/02/04 09:32:38;;;;;;;9.60;4.70;;;11.20;99.90;;;;;;5044340;28;20251;-62
2024/02/04 09:35:09;;;;;;;12.97;5.57;;;11.20;99.90;;;;;;5047829;28;20204;-61
2024/02/04 09:37:38;;;;;;;7.20;4.97;;;11.20;99.90;;;;;;5044492;28;20216;-62
2024/02/04 09:40:07;;;;;;;10.10;5.83;;;11.20;99.90;;;;;;5045270;28;20217;-61
2024/02/04 09:42:35;;;;;;;10.00;5.00;;;11.20;99.90;;;;;;5040702;28;20221;-62
2024/02/04 09:45:04;;;;;;;14.67;5.00;;;11.20;99.90;;;;;;5043405;28;20735;-61
2024/02/04 09:47:35;;;;;;;12.03;5.33;;;11.20;99.90;;;;;;5040839;28;20982;-62
2024/02/04 09:50:03;;;;;;;10.27;5.33;;;11.20;99.90;;;;;;5043809;28;20251;-61
2024/02/04 09:52:40;;;;;;;9.33;4.97;;;11.20;99.90;;;;;;5042786;28;20271;-61
2024/02/04 09:55:10;;;;;;;14.13;5.33;;;11.30;99.90;;;;;;5043534;28;20677;-62
2024/02/04 09:57:39;;;;;;;8.23;4.67;;;11.30;99.90;;;;;;5041496;28;20218;-61
2024/02/04 10:00:10;;;;;;;8.20;5.00;;;11.30;99.90;;;;;;5040602;28;20213;-61
2024/02/04 10:02:38;;;;;;;9.97;4.80;;;11.40;99.90;;;;;;5043925;28;20312;-61
2024/02/04 10:05:09;;;;;;;12.10;5.50;;;11.40;99.90;;;;;;5048470;28;20196;-62
2024/02/04 10:07:40;;;;;;;11.43;5.97;;;11.40;99.90;;;;;;5039953;28;20298;-62
2024/02/04 10:10:10;;;;;;;8.70;5.70;;;11.50;99.90;;;;;;5041377;28;20800;-62
2024/02/04 10:12:42;;;;;;;12.17;5.60;;;11.60;99.90;;;;;;5040499;28;20707;-61
2024/02/04 10:15:13;;;;;;;10.70;6.10;;;11.70;99.90;;;;;;5045626;28;20224;-61
2024/02/04 10:17:44;;;;;;;8.17;5.13;;;11.80;99.90;;;;;;5040418;28;20312;-61
2024/02/04 10:20:12;;;;;;;8.13;5.17;;;11.90;99.90;;;;;;5041914;28;20288;-61
2024/02/04 10:22:46;;;;;;;9.20;5.10;;;12.00;99.90;;;;;;5041463;28;20245;-61
2024/02/04 10:25:16;;;;;;;10.13;5.27;;;12.00;99.90;;;;;;5040841;28;20744;-63
2024/02/04 10:27:47;;;;;;;7.50;5.10;;;12.00;99.90;;;;;;5045277;28;20595;-61
2024/02/04 10:30:15;;;;;;;11.23;5.10;;;12.00;99.90;;;;;;5038480;28;20233;-62
2024/02/04 10:32:45;;;;;;;10.07;4.60;;;11.90;99.90;;;;;;5043157;28;20233;-61
2024/02/04 10:35:13;;;;;;;9.20;4.80;;;11.90;99.90;;;;;;5038599;28;20225;-62
2024/02/04 10:37:41;;;;;;;11.90;5.10;;;11.80;99.90;;;;;;5037861;28;20216;-62
2024/02/04 10:40:12;;;;;;;9.57;4.97;;;11.80;99.90;;;;;;5042042;28;20221;-61
2024/02/04 10:42:44;;;;;;;9.93;4.37;;;11.70;99.90;;;;;;5040244;28;20753;-61
2024/02/04 10:45:14;;;;;;;11.53;4.53;;;11.70;99.90;;;;;;5042136;28;20251;-61
2024/02/04 10:47:43;;;;;;;9.57;4.40;;;11.70;99.90;;;;;;5040303;28;20229;-62
2024/02/04 10:50:13;;;;;;;10.77;4.30;;;11.70;99.90;;;;;;5043173;28;20283;-61
2024/02/04 10:52:44;;;;;;;8.73;4.40;;;11.70;99.90;;;;;;5043103;28;20190;-61
2024/02/04 10:55:15;;;;;;;4.80;4.10;;;11.70;99.90;;;;;;5037539;28;20219;-62
2024/02/04 10:57:44;;;;;;;7.20;4.00;;;11.70;99.90;;;;;;5041944;28;20239;-62
2024/02/04 11:00:15;;;;;;;8.37;3.93;;;11.70;99.90;;;;;;5040763;28;20556;-62
2024/02/04 11:02:46;;;;;;;7.53;3.90;;;11.70;99.90;;;;;;5043686;28;20235;-61
2024/02/04 11:05:16;;;;;;;9.93;3.80;;;11.70;99.90;;;;;;5041078;28;20244;-61
2024/02/04 11:07:45;;;;;;;7.97;3.60;;;11.80;99.90;;;;;;5034876;28;20278;-62
2024/02/04 11:10:15;;;;;;;11.50;3.80;;;11.80;99.90;;;;;;5036315;28;20354;-61
2024/02/04 11:12:45;;;;;;;8.27;3.80;;;11.80;99.90;;;;;;5041668;28;20299;-61
2024/02/04 11:15:17;;;;;;;7.13;3.40;;;11.80;99.90;;;;;;5041073;28;20248;-62
2024/02/04 11:18:02;;;;;;;6.10;3.17;;;11.80;99.90;;;;;;5042246;28;20235;-62
2024/02/04 11:20:47;;;;;;;7.83;3.43;;;11.70;99.90;;;;;;5039617;28;20222;-61
2024/02/04 11:23:35;;;;;;;7.63;3.73;;;11.80;99.90;;;;;;5038888;28;20369;-61
2024/02/04 11:26:06;;;;;;;5.73;3.50;;;11.80;99.90;;;;;;5040223;28;20655;-62
2024/02/04 11:28:36;;;;;;;7.37;4.13;;;11.70;99.90;;;;;;5040089;28;20216;-62
2024/02/04 11:31:05;;;;;;;5.00;3.40;;;11.70;99.90;;;;;;5043412;28;20358;-61
2024/02/04 11:33:33;;;;;;;12.90;3.60;;;11.80;99.90;;;;;;5042144;28;20225;-61
2024/02/04 11:36:05;;;;;;;4.70;3.50;;;11.70;99.90;;;;;;5041453;28;20228;-61
2024/02/04 11:38:36;;;;;;;4.30;3.70;;;11.70;99.90;;;;;;5042516;28;20232;-61
2024/02/04 11:41:07;;;;;;;9.27;3.67;;;11.70;99.90;;;;;;5041382;28;20195;-62
2024/02/04 11:43:37;;;;;;;6.07;3.60;;;11.60;99.90;;;;;;5038788;28;20315;-61
2024/02/04 11:46:07;;;;;;;5.63;3.83;;;11.60;99.90;;;;;;5043335;28;20220;-61
2024/02/04 11:48:36;;;;;;;8.77;4.03;;;11.60;99.90;;;;;;5044706;28;20223;-62
2024/02/04 11:51:07;;;;;;;8.07;4.10;;;11.60;99.90;;;;;;5046685;28;20220;-62
2024/02/04 11:53:37;;;;;;;7.60;4.13;;;11.50;99.90;;;;;;5047702;28;20319;-62
2024/02/04 11:56:08;;;;;;;11.70;4.53;;;11.50;99.90;;;;;;5043946;28;20212;-62
2024/02/04 11:58:37;;;;;;;5.17;4.37;;;11.40;99.90;;;;;;5046347;28;20224;-62
2024/02/04 12:01:06;;;;;;;7.40;4.60;;;11.40;99.90;;;;;;5045037;28;20224;-62
2024/02/04 12:03:35;;;;;;;6.87;4.00;;;11.40;99.90;;;;;;5043493;28;20220;-62
2024/02/04 12:06:05;;;;;;;7.23;4.33;;;11.50;99.90;;;;;;5042732;28;20220;-62
2024/02/04 12:08:34;;;;;;;8.33;5.00;;;11.50;99.90;;;;;;5048677;28;20208;-62
2024/02/04 12:11:03;;;;;;;5.10;4.13;;;11.50;99.90;;;;;;5044398;28;20186;-62
2024/02/04 12:13:37;;;;;;;8.23;4.40;;;11.60;99.90;;;;;;5042034;28;20223;-62
2024/02/04 12:16:08;;;;;;;7.53;4.17;;;11.70;99.90;;;;;;5045762;28;20227;-62
2024/02/04 12:18:36;;;;;;;8.37;4.07;;;11.80;99.90;;;;;;5043615;28;20240;-62
2024/02/04 12:21:05;;;;;;;5.13;3.83;;;11.80;99.90;;;;;;5043770;28;20246;-61
2024/02/04 12:23:33;;;;;;;9.03;4.40;;;11.80;99.90;;;;;;5043515;28;20721;-62
2024/02/04 12:26:02;;;;;;;7.23;3.83;;;11.70;99.90;;;;;;5040610;28;20193;-62
2024/02/04 12:28:33;;;;;;;6.03;3.80;;;11.80;99.90;;;;;;5041871;28;20217;-61
2024/02/04 12:31:01;;;;;;;6.43;3.77;;;11.80;99.90;;;;;;5047441;28;20213;-61
2024/02/04 12:33:29;;;;;;;7.00;4.00;;;11.90;99.90;;;;;;5043845;28;20327;-62
2024/02/04 12:36:00;;;;;;;5.10;4.00;;;12.00;99.90;;;;;;5037486;28;20216;-62
2024/02/04 12:38:28;;;;;;;8.60;4.17;;;12.10;99.90;;;;;;5041024;28;20202;-62
2024/02/04 12:41:03;;;;;;;4.23;3.10;;;12.20;99.90;;;;;;5046429;28;20414;-61
2024/02/04 12:43:33;;;;;;;8.67;3.37;;;12.20;99.90;;;;;;5044094;28;20212;-61
2024/02/04 12:46:03;;;;;;;5.37;3.60;;;12.20;99.90;;;;;;5042663;28;20224;-62